sensor_id;sensor_type;location;lat;lon;timestamp;P1;durP1;ratioP1;P2;durP2;ratioP2
16963;SDS011;8598;50.508;10.436;2023-05-07T00:02:08;7.20;;;3.60;;
16963;SDS011;8598;50.508;10.436;2023-05-07T00:04:34;5.77;;;3.73;;
16963;SDS011;8598;50.508;10.436;2023-05-07T00:07:03;7.23;;;4.57;;
16963;SDS011;8598;50.508;10.436;2023-05-07T00:09:30;5.33;;;4.30;;
16963;SDS011;8598;50.508;10.436;2023-05-07T00:11:57;4.50;;;3.87;;
16963;SDS011;8598;50.508;10.436;2023-05-07T00:14:24;5.07;;;4.10;;
16963;SDS011;8598;50.508;10.436;2023-05-07T00:16:50;5.17;;;4.67;;
16963;SDS011;8598;50.508;10.436;2023-05-07T00:19:17;5.83;;;3.80;;
16963;SDS011;8598;50.508;10.436;2023-05-07T00:21:43;7.60;;;3.80;;
16963;SDS011;8598;50.508;10.436;2023-05-07T00:24:11;5.00;;;3.87;;
16963;SDS011;8598;50.508;10.436;2023-05-07T00:26:38;5.50;;;3.47;;
16963;SDS011;8598;50.508;10.436;2023-05-07T00:29:04;5.00;;;3.90;;
16963;SDS011;8598;50.508;10.436;2023-05-07T00:31:31;4.17;;;3.50;;
16963;SDS011;8598;50.508;10.436;2023-05-07T00:33:58;6.57;;;4.60;;
16963;SDS011;8598;50.508;10.436;2023-05-07T00:36:24;5.53;;;4.00;;
16963;SDS011;8598;50.508;10.436;2023-05-07T00:38:53;4.53;;;4.03;;
16963;SDS011;8598;50.508;10.436;2023-05-07T00:41:22;4.33;;;3.60;;
16963;SDS011;8598;50.508;10.436;2023-05-07T00:43:48;6.03;;;3.60;;
16963;SDS011;8598;50.508;10.436;2023-05-07T00:46:16;6.47;;;3.90;;
16963;SDS011;8598;50.508;10.436;2023-05-07T00:48:43;5.90;;;3.97;;
16963;SDS011;8598;50.508;10.436;2023-05-07T00:51:10;3.77;;;3.17;;
16963;SDS011;8598;50.508;10.436;2023-05-07T00:53:37;6.43;;;3.80;;
16963;SDS011;8598;50.508;10.436;2023-05-07T00:56:05;6.63;;;3.83;;
16963;SDS011;8598;50.508;10.436;2023-05-07T00:58:33;4.00;;;3.60;;
16963;SDS011;8598;50.508;10.436;2023-05-07T01:01:01;4.43;;;3.77;;
16963;SDS011;8598;50.508;10.436;2023-05-07T01:03:28;5.33;;;4.20;;
16963;SDS011;8598;50.508;10.436;2023-05-07T01:05:54;6.47;;;3.83;;
16963;SDS011;8598;50.508;10.436;2023-05-07T01:08:23;5.20;;;4.17;;
16963;SDS011;8598;50.508;10.436;2023-05-07T01:10:53;5.97;;;3.73;;
16963;SDS011;8598;50.508;10.436;2023-05-07T01:13:20;4.70;;;3.53;;
16963;SDS011;8598;50.508;10.436;2023-05-07T01:15:48;5.07;;;4.10;;
16963;SDS011;8598;50.508;10.436;2023-05-07T01:18:15;5.43;;;3.97;;
16963;SDS011;8598;50.508;10.436;2023-05-07T01:20:42;6.47;;;3.90;;
16963;SDS011;8598;50.508;10.436;2023-05-07T01:23:10;6.23;;;3.87;;
16963;SDS011;8598;50.508;10.436;2023-05-07T01:25:37;5.40;;;4.50;;
16963;SDS011;8598;50.508;10.436;2023-05-07T01:28:03;5.60;;;4.30;;
16963;SDS011;8598;50.508;10.436;2023-05-07T01:30:30;5.57;;;3.90;;
16963;SDS011;8598;50.508;10.436;2023-05-07T01:33:00;5.13;;;4.00;;
16963;SDS011;8598;50.508;10.436;2023-05-07T01:35:30;5.37;;;4.87;;
16963;SDS011;8598;50.508;10.436;2023-05-07T01:38:04;6.17;;;4.20;;
16963;SDS011;8598;50.508;10.436;2023-05-07T01:40:32;6.63;;;4.10;;
16963;SDS011;8598;50.508;10.436;2023-05-07T01:43:00;7.77;;;4.30;;
16963;SDS011;8598;50.508;10.436;2023-05-07T01:45:28;6.27;;;4.60;;
16963;SDS011;8598;50.508;10.436;2023-05-07T01:47:55;5.47;;;4.60;;
16963;SDS011;8598;50.508;10.436;2023-05-07T01:50:23;4.73;;;4.13;;
16963;SDS011;8598;50.508;10.436;2023-05-07T01:52:50;6.67;;;4.93;;
16963;SDS011;8598;50.508;10.436;2023-05-07T01:55:17;4.80;;;4.00;;
16963;SDS011;8598;50.508;10.436;2023-05-07T01:57:45;5.57;;;4.10;;
16963;SDS011;8598;50.508;10.436;2023-05-07T02:00:12;4.43;;;3.93;;
16963;SDS011;8598;50.508;10.436;2023-05-07T02:02:39;5.43;;;3.90;;
16963;SDS011;8598;50.508;10.436;2023-05-07T02:05:05;5.07;;;4.30;;
16963;SDS011;8598;50.508;10.436;2023-05-07T02:07:32;7.70;;;4.30;;
16963;SDS011;8598;50.508;10.436;2023-05-07T02:09:59;4.97;;;4.40;;
16963;SDS011;8598;50.508;10.436;2023-05-07T02:12:26;5.40;;;4.17;;
16963;SDS011;8598;50.508;10.436;2023-05-07T02:14:54;7.20;;;3.90;;
16963;SDS011;8598;50.508;10.436;2023-05-07T02:17:20;5.27;;;4.07;;
16963;SDS011;8598;50.508;10.436;2023-05-07T02:19:47;6.03;;;4.20;;
16963;SDS011;8598;50.508;10.436;2023-05-07T02:22:13;7.80;;;4.70;;
16963;SDS011;8598;50.508;10.436;2023-05-07T02:24:40;5.77;;;4.70;;
16963;SDS011;8598;50.508;10.436;2023-05-07T02:27:07;4.97;;;3.97;;
16963;SDS011;8598;50.508;10.436;2023-05-07T02:29:33;6.60;;;4.57;;
16963;SDS011;8598;50.508;10.436;2023-05-07T02:32:01;5.23;;;4.20;;
16963;SDS011;8598;50.508;10.436;2023-05-07T02:34:28;7.20;;;4.80;;
16963;SDS011;8598;50.508;10.436;2023-05-07T02:36:55;6.20;;;4.80;;
16963;SDS011;8598;50.508;10.436;2023-05-07T02:39:21;6.70;;;4.80;;
16963;SDS011;8598;50.508;10.436;2023-05-07T02:41:48;5.67;;;4.33;;
16963;SDS011;8598;50.508;10.436;2023-05-07T02:44:14;6.03;;;4.67;;
16963;SDS011;8598;50.508;10.436;2023-05-07T02:46:41;6.57;;;4.67;;
16963;SDS011;8598;50.508;10.436;2023-05-07T02:49:09;6.67;;;4.63;;
16963;SDS011;8598;50.508;10.436;2023-05-07T02:51:35;5.23;;;4.50;;
16963;SDS011;8598;50.508;10.436;2023-05-07T02:54:02;9.30;;;5.47;;
16963;SDS011;8598;50.508;10.436;2023-05-07T02:56:29;9.87;;;7.47;;
16963;SDS011;8598;50.508;10.436;2023-05-07T02:58:56;14.40;;;9.83;;
16963;SDS011;8598;50.508;10.436;2023-05-07T03:01:22;16.10;;;11.27;;
16963;SDS011;8598;50.508;10.436;2023-05-07T03:03:49;15.50;;;11.73;;
16963;SDS011;8598;50.508;10.436;2023-05-07T03:06:18;18.63;;;11.77;;
16963;SDS011;8598;50.508;10.436;2023-05-07T03:08:44;13.53;;;10.03;;
16963;SDS011;8598;50.508;10.436;2023-05-07T03:11:11;16.10;;;11.03;;
16963;SDS011;8598;50.508;10.436;2023-05-07T03:13:37;15.13;;;11.10;;
16963;SDS011;8598;50.508;10.436;2023-05-07T03:16:05;15.77;;;11.97;;
16963;SDS011;8598;50.508;10.436;2023-05-07T03:18:32;17.33;;;10.67;;
16963;SDS011;8598;50.508;10.436;2023-05-07T03:20:58;12.47;;;10.60;;
16963;SDS011;8598;50.508;10.436;2023-05-07T03:23:26;14.13;;;10.70;;
16963;SDS011;8598;50.508;10.436;2023-05-07T03:25:53;11.10;;;9.00;;
16963;SDS011;8598;50.508;10.436;2023-05-07T03:28:19;12.40;;;9.33;;
16963;SDS011;8598;50.508;10.436;2023-05-07T03:30:46;12.90;;;9.63;;
16963;SDS011;8598;50.508;10.436;2023-05-07T03:33:12;13.97;;;9.93;;
16963;SDS011;8598;50.508;10.436;2023-05-07T03:35:39;16.57;;;11.37;;
16963;SDS011;8598;50.508;10.436;2023-05-07T03:38:07;15.77;;;12.07;;
16963;SDS011;8598;50.508;10.436;2023-05-07T03:40:35;13.03;;;9.93;;
16963;SDS011;8598;50.508;10.436;2023-05-07T03:43:01;12.03;;;9.30;;
16963;SDS011;8598;50.508;10.436;2023-05-07T03:45:28;14.27;;;10.00;;
16963;SDS011;8598;50.508;10.436;2023-05-07T03:47:55;13.83;;;9.63;;
16963;SDS011;8598;50.508;10.436;2023-05-07T03:50:21;11.43;;;9.60;;
16963;SDS011;8598;50.508;10.436;2023-05-07T03:52:48;14.77;;;10.23;;
16963;SDS011;8598;50.508;10.436;2023-05-07T03:55:15;11.23;;;9.30;;
16963;SDS011;8598;50.508;10.436;2023-05-07T03:57:42;17.67;;;10.27;;
16963;SDS011;8598;50.508;10.436;2023-05-07T04:00:10;14.27;;;10.67;;
16963;SDS011;8598;50.508;10.436;2023-05-07T04:02:37;12.83;;;10.40;;
16963;SDS011;8598;50.508;10.436;2023-05-07T04:05:04;16.57;;;10.30;;
16963;SDS011;8598;50.508;10.436;2023-05-07T04:07:31;14.70;;;10.20;;
16963;SDS011;8598;50.508;10.436;2023-05-07T04:09:57;12.63;;;9.40;;
16963;SDS011;8598;50.508;10.436;2023-05-07T04:12:24;14.37;;;10.33;;
16963;SDS011;8598;50.508;10.436;2023-05-07T04:14:52;12.20;;;9.77;;
16963;SDS011;8598;50.508;10.436;2023-05-07T04:17:18;12.70;;;9.43;;
16963;SDS011;8598;50.508;10.436;2023-05-07T04:19:45;14.93;;;9.73;;
16963;SDS011;8598;50.508;10.436;2023-05-07T04:22:11;11.43;;;9.30;;
16963;SDS011;8598;50.508;10.436;2023-05-07T04:24:38;13.23;;;9.53;;
16963;SDS011;8598;50.508;10.436;2023-05-07T04:27:05;14.63;;;9.73;;
16963;SDS011;8598;50.508;10.436;2023-05-07T04:29:31;10.90;;;8.70;;
16963;SDS011;8598;50.508;10.436;2023-05-07T04:31:59;15.87;;;10.30;;
16963;SDS011;8598;50.508;10.436;2023-05-07T04:34:26;12.60;;;10.33;;
16963;SDS011;8598;50.508;10.436;2023-05-07T04:36:53;16.07;;;10.57;;
16963;SDS011;8598;50.508;10.436;2023-05-07T04:39:19;15.87;;;11.70;;
16963;SDS011;8598;50.508;10.436;2023-05-07T04:41:46;17.40;;;13.60;;
16963;SDS011;8598;50.508;10.436;2023-05-07T04:44:13;15.77;;;11.47;;
16963;SDS011;8598;50.508;10.436;2023-05-07T04:46:39;15.20;;;11.57;;
16963;SDS011;8598;50.508;10.436;2023-05-07T04:49:07;16.37;;;11.30;;
16963;SDS011;8598;50.508;10.436;2023-05-07T04:51:34;17.87;;;11.03;;
16963;SDS011;8598;50.508;10.436;2023-05-07T04:54:00;16.70;;;11.27;;
16963;SDS011;8598;50.508;10.436;2023-05-07T04:56:27;12.90;;;10.97;;
16963;SDS011;8598;50.508;10.436;2023-05-07T04:58:54;17.20;;;11.13;;
16963;SDS011;8598;50.508;10.436;2023-05-07T05:01:21;16.10;;;11.47;;
16963;SDS011;8598;50.508;10.436;2023-05-07T05:03:48;17.77;;;12.10;;
16963;SDS011;8598;50.508;10.436;2023-05-07T05:06:16;15.03;;;10.83;;
16963;SDS011;8598;50.508;10.436;2023-05-07T05:08:42;13.97;;;10.43;;
16963;SDS011;8598;50.508;10.436;2023-05-07T05:11:09;13.37;;;10.67;;
16963;SDS011;8598;50.508;10.436;2023-05-07T05:13:35;13.47;;;10.07;;
16963;SDS011;8598;50.508;10.436;2023-05-07T05:16:02;19.03;;;9.90;;
16963;SDS011;8598;50.508;10.436;2023-05-07T05:18:29;13.80;;;10.20;;
16963;SDS011;8598;50.508;10.436;2023-05-07T05:20:56;13.93;;;10.17;;
16963;SDS011;8598;50.508;10.436;2023-05-07T05:23:24;13.50;;;9.37;;
16963;SDS011;8598;50.508;10.436;2023-05-07T05:25:54;13.20;;;8.77;;
16963;SDS011;8598;50.508;10.436;2023-05-07T05:28:22;15.23;;;9.10;;
16963;SDS011;8598;50.508;10.436;2023-05-07T05:30:48;9.30;;;7.93;;
16963;SDS011;8598;50.508;10.436;2023-05-07T05:33:15;11.93;;;8.67;;
16963;SDS011;8598;50.508;10.436;2023-05-07T05:35:41;10.47;;;8.40;;
16963;SDS011;8598;50.508;10.436;2023-05-07T05:38:08;10.93;;;8.70;;
16963;SDS011;8598;50.508;10.436;2023-05-07T05:40:36;11.83;;;8.97;;
16963;SDS011;8598;50.508;10.436;2023-05-07T05:43:03;12.43;;;9.73;;
16963;SDS011;8598;50.508;10.436;2023-05-07T05:45:29;12.10;;;9.07;;
16963;SDS011;8598;50.508;10.436;2023-05-07T05:47:56;12.47;;;10.53;;
16963;SDS011;8598;50.508;10.436;2023-05-07T05:50:22;11.10;;;9.13;;
16963;SDS011;8598;50.508;10.436;2023-05-07T05:52:49;12.73;;;9.83;;
16963;SDS011;8598;50.508;10.436;2023-05-07T05:55:16;14.17;;;9.83;;
16963;SDS011;8598;50.508;10.436;2023-05-07T05:57:44;14.40;;;10.57;;
16963;SDS011;8598;50.508;10.436;2023-05-07T06:00:11;12.33;;;10.20;;
16963;SDS011;8598;50.508;10.436;2023-05-07T06:02:38;13.00;;;10.37;;
16963;SDS011;8598;50.508;10.436;2023-05-07T06:05:05;11.77;;;9.77;;
16963;SDS011;8598;50.508;10.436;2023-05-07T06:07:32;13.37;;;9.63;;
16963;SDS011;8598;50.508;10.436;2023-05-07T06:09:59;14.00;;;10.30;;
16963;SDS011;8598;50.508;10.436;2023-05-07T06:12:26;14.00;;;10.70;;
16963;SDS011;8598;50.508;10.436;2023-05-07T06:14:54;14.77;;;9.67;;
16963;SDS011;8598;50.508;10.436;2023-05-07T06:17:20;13.10;;;10.13;;
16963;SDS011;8598;50.508;10.436;2023-05-07T06:19:47;14.87;;;10.57;;
16963;SDS011;8598;50.508;10.436;2023-05-07T06:22:14;12.30;;;10.63;;
16963;SDS011;8598;50.508;10.436;2023-05-07T06:24:40;12.83;;;9.27;;
16963;SDS011;8598;50.508;10.436;2023-05-07T06:27:07;13.60;;;11.13;;
16963;SDS011;8598;50.508;10.436;2023-05-07T06:29:33;13.67;;;11.13;;
16963;SDS011;8598;50.508;10.436;2023-05-07T06:32:07;13.77;;;10.57;;
16963;SDS011;8598;50.508;10.436;2023-05-07T06:34:35;12.53;;;9.87;;
16963;SDS011;8598;50.508;10.436;2023-05-07T06:37:01;12.23;;;9.80;;
16963;SDS011;8598;50.508;10.436;2023-05-07T06:39:28;13.93;;;10.47;;
16963;SDS011;8598;50.508;10.436;2023-05-07T06:41:55;11.27;;;9.43;;
16963;SDS011;8598;50.508;10.436;2023-05-07T06:44:21;13.13;;;9.83;;
16963;SDS011;8598;50.508;10.436;2023-05-07T06:46:48;10.47;;;9.10;;
16963;SDS011;8598;50.508;10.436;2023-05-07T06:49:16;13.40;;;10.60;;
16963;SDS011;8598;50.508;10.436;2023-05-07T06:51:43;11.30;;;9.30;;
16963;SDS011;8598;50.508;10.436;2023-05-07T06:54:09;11.83;;;9.70;;
16963;SDS011;8598;50.508;10.436;2023-05-07T06:56:36;13.13;;;9.73;;
16963;SDS011;8598;50.508;10.436;2023-05-07T06:59:03;11.97;;;9.70;;
16963;SDS011;8598;50.508;10.436;2023-05-07T07:01:29;14.17;;;10.60;;
16963;SDS011;8598;50.508;10.436;2023-05-07T07:03:56;15.07;;;11.27;;
16963;SDS011;8598;50.508;10.436;2023-05-07T07:06:24;11.90;;;10.20;;
16963;SDS011;8598;50.508;10.436;2023-05-07T07:08:50;12.57;;;9.93;;
16963;SDS011;8598;50.508;10.436;2023-05-07T07:11:17;10.03;;;8.23;;
16963;SDS011;8598;50.508;10.436;2023-05-07T07:13:43;11.10;;;8.13;;
16963;SDS011;8598;50.508;10.436;2023-05-07T07:16:10;9.53;;;7.97;;
16963;SDS011;8598;50.508;10.436;2023-05-07T07:18:37;10.87;;;8.20;;
16963;SDS011;8598;50.508;10.436;2023-05-07T07:21:04;10.87;;;7.80;;
16963;SDS011;8598;50.508;10.436;2023-05-07T07:23:32;10.10;;;8.63;;
16963;SDS011;8598;50.508;10.436;2023-05-07T07:25:58;9.20;;;7.77;;
16963;SDS011;8598;50.508;10.436;2023-05-07T07:28:25;10.23;;;7.93;;
16963;SDS011;8598;50.508;10.436;2023-05-07T07:30:52;10.07;;;7.00;;
16963;SDS011;8598;50.508;10.436;2023-05-07T07:33:18;9.03;;;6.83;;
16963;SDS011;8598;50.508;10.436;2023-05-07T07:35:45;8.53;;;6.57;;
16963;SDS011;8598;50.508;10.436;2023-05-07T07:38:11;6.40;;;5.23;;
16963;SDS011;8598;50.508;10.436;2023-05-07T07:40:39;7.87;;;6.30;;
16963;SDS011;8598;50.508;10.436;2023-05-07T07:43:06;6.50;;;5.60;;
16963;SDS011;8598;50.508;10.436;2023-05-07T07:45:33;12.03;;;7.73;;
16963;SDS011;8598;50.508;10.436;2023-05-07T07:48:00;9.77;;;6.17;;
16963;SDS011;8598;50.508;10.436;2023-05-07T07:50:26;8.57;;;6.53;;
16963;SDS011;8598;50.508;10.436;2023-05-07T07:52:53;8.93;;;6.30;;
16963;SDS011;8598;50.508;10.436;2023-05-07T07:55:20;9.93;;;5.83;;
16963;SDS011;8598;50.508;10.436;2023-05-07T07:57:49;6.63;;;5.10;;
16963;SDS011;8598;50.508;10.436;2023-05-07T08:00:16;8.33;;;5.60;;
16963;SDS011;8598;50.508;10.436;2023-05-07T08:02:42;7.23;;;5.33;;
16963;SDS011;8598;50.508;10.436;2023-05-07T08:05:09;6.13;;;4.90;;
16963;SDS011;8598;50.508;10.436;2023-05-07T08:07:36;6.37;;;5.10;;
16963;SDS011;8598;50.508;10.436;2023-05-07T08:10:03;6.33;;;5.00;;
16963;SDS011;8598;50.508;10.436;2023-05-07T08:12:30;9.40;;;5.80;;
16963;SDS011;8598;50.508;10.436;2023-05-07T08:14:58;6.67;;;4.77;;
16963;SDS011;8598;50.508;10.436;2023-05-07T08:17:24;8.50;;;5.10;;
16963;SDS011;8598;50.508;10.436;2023-05-07T08:19:51;7.03;;;5.03;;
16963;SDS011;8598;50.508;10.436;2023-05-07T08:22:18;6.53;;;5.07;;
16963;SDS011;8598;50.508;10.436;2023-05-07T08:24:44;8.27;;;5.03;;
16963;SDS011;8598;50.508;10.436;2023-05-07T08:27:11;5.73;;;4.63;;
16963;SDS011;8598;50.508;10.436;2023-05-07T08:29:37;5.40;;;4.30;;
16963;SDS011;8598;50.508;10.436;2023-05-07T08:32:05;6.23;;;4.57;;
16963;SDS011;8598;50.508;10.436;2023-05-07T08:34:32;8.27;;;5.13;;
16963;SDS011;8598;50.508;10.436;2023-05-07T08:36:58;7.03;;;4.80;;
16963;SDS011;8598;50.508;10.436;2023-05-07T08:39:25;8.33;;;5.27;;
16963;SDS011;8598;50.508;10.436;2023-05-07T08:41:52;7.43;;;5.07;;
16963;SDS011;8598;50.508;10.436;2023-05-07T08:44:22;6.83;;;4.60;;
16963;SDS011;8598;50.508;10.436;2023-05-07T08:46:53;7.20;;;4.43;;
16963;SDS011;8598;50.508;10.436;2023-05-07T08:49:23;7.43;;;4.00;;
16963;SDS011;8598;50.508;10.436;2023-05-07T08:51:50;7.13;;;4.47;;
16963;SDS011;8598;50.508;10.436;2023-05-07T08:54:18;6.67;;;3.90;;
16963;SDS011;8598;50.508;10.436;2023-05-07T08:56:46;6.60;;;4.50;;
16963;SDS011;8598;50.508;10.436;2023-05-07T08:59:12;7.17;;;4.30;;
16963;SDS011;8598;50.508;10.436;2023-05-07T09:01:39;5.93;;;4.43;;
16963;SDS011;8598;50.508;10.436;2023-05-07T09:04:06;4.03;;;3.47;;
16963;SDS011;8598;50.508;10.436;2023-05-07T09:06:35;5.20;;;4.23;;
16963;SDS011;8598;50.508;10.436;2023-05-07T09:09:03;8.17;;;5.20;;
16963;SDS011;8598;50.508;10.436;2023-05-07T09:11:30;8.13;;;4.93;;
16963;SDS011;8598;50.508;10.436;2023-05-07T09:13:57;5.97;;;4.50;;
16963;SDS011;8598;50.508;10.436;2023-05-07T09:16:26;5.80;;;4.20;;
16963;SDS011;8598;50.508;10.436;2023-05-07T09:18:54;7.40;;;4.27;;
16963;SDS011;8598;50.508;10.436;2023-05-07T09:21:21;8.03;;;4.70;;
16963;SDS011;8598;50.508;10.436;2023-05-07T09:23:50;5.97;;;4.30;;
16963;SDS011;8598;50.508;10.436;2023-05-07T09:26:17;6.23;;;4.33;;
16963;SDS011;8598;50.508;10.436;2023-05-07T09:28:44;7.33;;;4.23;;
16963;SDS011;8598;50.508;10.436;2023-05-07T09:31:11;5.40;;;4.10;;
16963;SDS011;8598;50.508;10.436;2023-05-07T09:33:38;6.40;;;4.57;;
16963;SDS011;8598;50.508;10.436;2023-05-07T09:36:06;7.77;;;4.63;;
16963;SDS011;8598;50.508;10.436;2023-05-07T09:38:35;5.70;;;4.10;;
16963;SDS011;8598;50.508;10.436;2023-05-07T09:41:04;6.47;;;4.40;;
16963;SDS011;8598;50.508;10.436;2023-05-07T09:43:32;9.73;;;4.37;;
16963;SDS011;8598;50.508;10.436;2023-05-07T09:46:01;6.87;;;4.13;;
16963;SDS011;8598;50.508;10.436;2023-05-07T09:48:29;5.10;;;4.53;;
16963;SDS011;8598;50.508;10.436;2023-05-07T09:50:57;9.13;;;4.20;;
16963;SDS011;8598;50.508;10.436;2023-05-07T09:53:29;5.67;;;4.40;;
16963;SDS011;8598;50.508;10.436;2023-05-07T09:55:56;5.77;;;4.13;;
16963;SDS011;8598;50.508;10.436;2023-05-07T09:58:25;5.27;;;3.73;;
16963;SDS011;8598;50.508;10.436;2023-05-07T10:00:53;4.60;;;3.50;;
16963;SDS011;8598;50.508;10.436;2023-05-07T10:03:21;5.80;;;4.00;;
16963;SDS011;8598;50.508;10.436;2023-05-07T10:05:50;5.17;;;3.87;;
16963;SDS011;8598;50.508;10.436;2023-05-07T10:08:19;7.40;;;4.27;;
16963;SDS011;8598;50.508;10.436;2023-05-07T10:10:46;4.93;;;3.73;;
16963;SDS011;8598;50.508;10.436;2023-05-07T10:13:13;4.20;;;3.50;;
16963;SDS011;8598;50.508;10.436;2023-05-07T10:15:41;4.50;;;3.60;;
16963;SDS011;8598;50.508;10.436;2023-05-07T10:18:08;4.60;;;3.90;;
16963;SDS011;8598;50.508;10.436;2023-05-07T10:20:35;4.67;;;4.00;;
16963;SDS011;8598;50.508;10.436;2023-05-07T10:23:03;5.20;;;3.67;;
16963;SDS011;8598;50.508;10.436;2023-05-07T10:25:31;4.57;;;3.60;;
16963;SDS011;8598;50.508;10.436;2023-05-07T10:27:59;4.13;;;3.27;;
16963;SDS011;8598;50.508;10.436;2023-05-07T10:30:30;4.43;;;3.80;;
16963;SDS011;8598;50.508;10.436;2023-05-07T10:33:06;5.00;;;3.87;;
16963;SDS011;8598;50.508;10.436;2023-05-07T10:35:37;5.10;;;3.50;;
16963;SDS011;8598;50.508;10.436;2023-05-07T10:38:06;5.17;;;3.67;;
16963;SDS011;8598;50.508;10.436;2023-05-07T10:40:34;4.23;;;3.40;;
16963;SDS011;8598;50.508;10.436;2023-05-07T10:43:01;5.03;;;3.50;;
16963;SDS011;8598;50.508;10.436;2023-05-07T10:45:30;5.83;;;4.00;;
16963;SDS011;8598;50.508;10.436;2023-05-07T10:48:08;5.00;;;3.50;;
16963;SDS011;8598;50.508;10.436;2023-05-07T10:50:35;4.60;;;3.53;;
16963;SDS011;8598;50.508;10.436;2023-05-07T10:58:50;4.00;;;3.30;;
16963;SDS011;8598;50.508;10.436;2023-05-07T11:01:17;3.93;;;3.50;;
16963;SDS011;8598;50.508;10.436;2023-05-07T11:04:17;4.93;;;3.60;;
16963;SDS011;8598;50.508;10.436;2023-05-07T11:09:57;3.90;;;2.80;;
16963;SDS011;8598;50.508;10.436;2023-05-07T11:15:33;4.07;;;3.13;;
16963;SDS011;8598;50.508;10.436;2023-05-07T11:18:04;3.83;;;2.63;;
16963;SDS011;8598;50.508;10.436;2023-05-07T11:26:25;3.40;;;2.83;;
16963;SDS011;8598;50.508;10.436;2023-05-07T11:28:53;2.83;;;2.47;;
16963;SDS011;8598;50.508;10.436;2023-05-07T11:31:20;4.23;;;2.60;;
16963;SDS011;8598;50.508;10.436;2023-05-07T11:33:48;4.43;;;2.87;;
16963;SDS011;8598;50.508;10.436;2023-05-07T11:36:17;3.20;;;2.57;;
16963;SDS011;8598;50.508;10.436;2023-05-07T11:38:45;2.80;;;2.50;;
16963;SDS011;8598;50.508;10.436;2023-05-07T11:41:12;4.40;;;3.47;;
16963;SDS011;8598;50.508;10.436;2023-05-07T11:43:42;4.23;;;2.67;;
16963;SDS011;8598;50.508;10.436;2023-05-07T11:46:21;5.03;;;2.47;;
16963;SDS011;8598;50.508;10.436;2023-05-07T11:48:47;2.43;;;2.23;;
16963;SDS011;8598;50.508;10.436;2023-05-07T11:51:14;4.60;;;2.77;;
16963;SDS011;8598;50.508;10.436;2023-05-07T11:53:47;3.10;;;2.63;;
16963;SDS011;8598;50.508;10.436;2023-05-07T11:56:14;6.37;;;2.57;;
16963;SDS011;8598;50.508;10.436;2023-05-07T11:58:42;4.47;;;2.43;;
16963;SDS011;8598;50.508;10.436;2023-05-07T12:01:10;3.27;;;2.43;;
16963;SDS011;8598;50.508;10.436;2023-05-07T12:03:37;3.37;;;3.07;;
16963;SDS011;8598;50.508;10.436;2023-05-07T12:06:07;2.67;;;2.40;;
16963;SDS011;8598;50.508;10.436;2023-05-07T12:08:37;3.50;;;2.30;;
16963;SDS011;8598;50.508;10.436;2023-05-07T12:11:06;4.03;;;2.20;;
16963;SDS011;8598;50.508;10.436;2023-05-07T12:13:34;2.57;;;2.30;;
16963;SDS011;8598;50.508;10.436;2023-05-07T12:16:01;5.87;;;2.50;;
16963;SDS011;8598;50.508;10.436;2023-05-07T12:18:29;3.17;;;2.40;;
16963;SDS011;8598;50.508;10.436;2023-05-07T12:20:56;5.53;;;2.70;;
16963;SDS011;8598;50.508;10.436;2023-05-07T12:23:22;3.33;;;2.20;;
16963;SDS011;8598;50.508;10.436;2023-05-07T12:25:51;3.60;;;2.40;;
16963;SDS011;8598;50.508;10.436;2023-05-07T12:28:18;3.67;;;2.70;;
16963;SDS011;8598;50.508;10.436;2023-05-07T12:30:46;3.67;;;2.53;;
16963;SDS011;8598;50.508;10.436;2023-05-07T12:33:15;4.57;;;2.63;;
16963;SDS011;8598;50.508;10.436;2023-05-07T12:35:43;4.73;;;2.53;;
16963;SDS011;8598;50.508;10.436;2023-05-07T12:38:11;2.87;;;2.50;;
16963;SDS011;8598;50.508;10.436;2023-05-07T12:40:39;4.10;;;2.60;;
16963;SDS011;8598;50.508;10.436;2023-05-07T12:43:08;3.00;;;2.10;;
16963;SDS011;8598;50.508;10.436;2023-05-07T12:45:42;3.53;;;2.40;;
16963;SDS011;8598;50.508;10.436;2023-05-07T12:48:09;4.33;;;2.50;;
16963;SDS011;8598;50.508;10.436;2023-05-07T12:50:36;3.00;;;2.47;;
16963;SDS011;8598;50.508;10.436;2023-05-07T12:53:03;4.07;;;2.10;;
16963;SDS011;8598;50.508;10.436;2023-05-07T12:55:31;2.60;;;2.23;;
16963;SDS011;8598;50.508;10.436;2023-05-07T12:58:00;4.57;;;3.10;;
16963;SDS011;8598;50.508;10.436;2023-05-07T13:00:35;4.43;;;2.63;;
16963;SDS011;8598;50.508;10.436;2023-05-07T13:03:02;6.00;;;2.77;;
16963;SDS011;8598;50.508;10.436;2023-05-07T13:05:30;2.93;;;2.40;;
16963;SDS011;8598;50.508;10.436;2023-05-07T13:07:58;4.87;;;3.10;;
16963;SDS011;8598;50.508;10.436;2023-05-07T13:10:25;3.67;;;2.57;;
16963;SDS011;8598;50.508;10.436;2023-05-07T13:12:53;3.97;;;2.77;;
16963;SDS011;8598;50.508;10.436;2023-05-07T13:15:19;3.63;;;2.33;;
16963;SDS011;8598;50.508;10.436;2023-05-07T13:17:48;4.87;;;3.70;;
16963;SDS011;8598;50.508;10.436;2023-05-07T13:20:14;5.00;;;2.93;;
16963;SDS011;8598;50.508;10.436;2023-05-07T13:22:42;3.03;;;2.70;;
16963;SDS011;8598;50.508;10.436;2023-05-07T13:25:08;3.47;;;2.87;;
16963;SDS011;8598;50.508;10.436;2023-05-07T13:27:35;4.67;;;2.57;;
16963;SDS011;8598;50.508;10.436;2023-05-07T13:30:02;3.20;;;2.60;;
16963;SDS011;8598;50.508;10.436;2023-05-07T13:32:30;4.23;;;2.50;;
16963;SDS011;8598;50.508;10.436;2023-05-07T13:34:58;4.50;;;2.87;;
16963;SDS011;8598;50.508;10.436;2023-05-07T13:37:25;3.10;;;2.20;;
16963;SDS011;8598;50.508;10.436;2023-05-07T13:39:52;4.43;;;2.67;;
16963;SDS011;8598;50.508;10.436;2023-05-07T13:42:18;5.27;;;2.17;;
16963;SDS011;8598;50.508;10.436;2023-05-07T13:44:45;3.17;;;2.50;;
16963;SDS011;8598;50.508;10.436;2023-05-07T13:47:11;4.17;;;2.60;;
16963;SDS011;8598;50.508;10.436;2023-05-07T13:49:39;4.23;;;2.33;;
16963;SDS011;8598;50.508;10.436;2023-05-07T13:52:07;4.20;;;2.57;;
16963;SDS011;8598;50.508;10.436;2023-05-07T13:54:33;5.17;;;2.83;;
16963;SDS011;8598;50.508;10.436;2023-05-07T13:57:00;3.33;;;2.53;;
16963;SDS011;8598;50.508;10.436;2023-05-07T13:59:26;4.40;;;3.17;;
16963;SDS011;8598;50.508;10.436;2023-05-07T14:01:53;3.43;;;2.80;;
16963;SDS011;8598;50.508;10.436;2023-05-07T14:04:20;4.30;;;2.90;;
16963;SDS011;8598;50.508;10.436;2023-05-07T14:06:47;4.10;;;3.27;;
16963;SDS011;8598;50.508;10.436;2023-05-07T14:09:15;3.97;;;2.70;;
16963;SDS011;8598;50.508;10.436;2023-05-07T14:11:41;3.93;;;3.10;;
16963;SDS011;8598;50.508;10.436;2023-05-07T14:14:08;5.57;;;3.03;;
16963;SDS011;8598;50.508;10.436;2023-05-07T14:16:36;3.83;;;2.67;;
16963;SDS011;8598;50.508;10.436;2023-05-07T14:19:03;5.13;;;3.40;;
16963;SDS011;8598;50.508;10.436;2023-05-07T14:21:29;2.90;;;2.53;;
16963;SDS011;8598;50.508;10.436;2023-05-07T14:23:56;4.53;;;2.87;;
16963;SDS011;8598;50.508;10.436;2023-05-07T14:26:26;3.70;;;2.90;;
16963;SDS011;8598;50.508;10.436;2023-05-07T14:28:52;4.17;;;2.53;;
16963;SDS011;8598;50.508;10.436;2023-05-07T14:31:22;3.40;;;2.80;;
16963;SDS011;8598;50.508;10.436;2023-05-07T14:33:48;4.70;;;3.23;;
16963;SDS011;8598;50.508;10.436;2023-05-07T14:36:15;5.40;;;3.57;;
16963;SDS011;8598;50.508;10.436;2023-05-07T14:38:42;5.30;;;3.63;;
16963;SDS011;8598;50.508;10.436;2023-05-07T14:41:09;4.23;;;3.50;;
16963;SDS011;8598;50.508;10.436;2023-05-07T14:43:37;4.53;;;3.60;;
16963;SDS011;8598;50.508;10.436;2023-05-07T14:46:03;5.23;;;3.53;;
16963;SDS011;8598;50.508;10.436;2023-05-07T14:48:30;5.40;;;4.20;;
16963;SDS011;8598;50.508;10.436;2023-05-07T14:50:57;5.03;;;4.17;;
16963;SDS011;8598;50.508;10.436;2023-05-07T14:53:23;5.87;;;4.37;;
16963;SDS011;8598;50.508;10.436;2023-05-07T14:55:50;5.73;;;4.40;;
16963;SDS011;8598;50.508;10.436;2023-05-07T14:58:17;6.50;;;4.30;;
16963;SDS011;8598;50.508;10.436;2023-05-07T15:00:45;5.50;;;4.20;;